sensor_id;sensor_type;location;lat;lon;timestamp;P1;durP1;ratioP1;P2;durP2;ratioP2
57615;SDS011;43816;52.054;-9.494;2023-01-15T00:00:10;3.78;;;2.55;;
57615;SDS011;43816;52.054;-9.494;2023-01-15T00:00:21;3.65;;;2.53;;
57615;SDS011;43816;52.054;-9.494;2023-01-15T00:00:31;3.17;;;2.37;;
57615;SDS011;43816;52.054;-9.494;2023-01-15T00:00:41;3.60;;;2.40;;
57615;SDS011;43816;52.054;-9.494;2023-01-15T00:00:52;3.88;;;2.55;;
57615;SDS011;43816;52.054;-9.494;2023-01-15T00:01:03;3.83;;;2.70;;
57615;SDS011;43816;52.054;-9.494;2023-01-15T00:01:18;3.10;;;2.50;;
57615;SDS011;43816;52.054;-9.494;2023-01-15T00:01:41;2.80;;;2.35;;
57615;SDS011;43816;52.054;-9.494;2023-01-15T00:01:51;2.83;;;2.30;;
57615;SDS011;43816;52.054;-9.494;2023-01-15T00:02:01;2.67;;;2.20;;
57615;SDS011;43816;52.054;-9.494;2023-01-15T00:02:12;3.50;;;2.23;;
57615;SDS011;43816;52.054;-9.494;2023-01-15T00:02:22;4.10;;;2.40;;
57615;SDS011;43816;52.054;-9.494;2023-01-15T00:02:32;4.60;;;2.60;;
57615;SDS011;43816;52.054;-9.494;2023-01-15T00:02:43;3.67;;;2.40;;
57615;SDS011;43816;52.054;-9.494;2023-01-15T00:02:54;3.05;;;2.30;;
57615;SDS011;43816;52.054;-9.494;2023-01-15T00:03:04;2.97;;;2.13;;
57615;SDS011;43816;52.054;-9.494;2023-01-15T00:03:15;3.37;;;2.20;;
57615;SDS011;43816;52.054;-9.494;2023-01-15T00:03:25;3.72;;;2.22;;
57615;SDS011;43816;52.054;-9.494;2023-01-15T00:03:36;3.75;;;2.35;;
57615;SDS011;43816;52.054;-9.494;2023-01-15T00:03:46;3.63;;;2.40;;
57615;SDS011;43816;52.054;-9.494;2023-01-15T00:03:57;3.45;;;2.40;;
57615;SDS011;43816;52.054;-9.494;2023-01-15T00:04:10;3.10;;;2.40;;
57615;SDS011;43816;52.054;-9.494;2023-01-15T00:04:21;2.55;;;2.25;;
57615;SDS011;43816;52.054;-9.494;2023-01-15T00:04:31;2.77;;;2.27;;
57615;SDS011;43816;52.054;-9.494;2023-01-15T00:04:42;2.90;;;2.22;;
57615;SDS011;43816;52.054;-9.494;2023-01-15T00:04:52;2.87;;;2.20;;
57615;SDS011;43816;52.054;-9.494;2023-01-15T00:05:02;2.97;;;2.27;;
57615;SDS011;43816;52.054;-9.494;2023-01-15T00:05:13;3.55;;;2.33;;
57615;SDS011;43816;52.054;-9.494;2023-01-15T00:05:23;3.57;;;2.40;;
57615;SDS011;43816;52.054;-9.494;2023-01-15T00:05:36;3.70;;;2.42;;
57615;SDS011;43816;52.054;-9.494;2023-01-15T00:05:47;3.03;;;2.30;;
57615;SDS011;43816;52.054;-9.494;2023-01-15T00:06:00;3.50;;;2.33;;
57615;SDS011;43816;52.054;-9.494;2023-01-15T00:06:11;3.60;;;2.33;;
57615;SDS011;43816;52.054;-9.494;2023-01-15T00:06:22;3.47;;;2.30;;
57615;SDS011;43816;52.054;-9.494;2023-01-15T00:06:36;3.33;;;2.10;;
57615;SDS011;43816;52.054;-9.494;2023-01-15T00:06:48;3.17;;;2.00;;
57615;SDS011;43816;52.054;-9.494;2023-01-15T00:06:58;2.92;;;2.10;;
57615;SDS011;43816;52.054;-9.494;2023-01-15T00:07:08;2.60;;;2.00;;
57615;SDS011;43816;52.054;-9.494;2023-01-15T00:07:19;3.00;;;2.00;;
57615;SDS011;43816;52.054;-9.494;2023-01-15T00:07:29;2.73;;;1.90;;
57615;SDS011;43816;52.054;-9.494;2023-01-15T00:07:40;3.05;;;2.17;;
57615;SDS011;43816;52.054;-9.494;2023-01-15T00:07:51;2.90;;;2.27;;
57615;SDS011;43816;52.054;-9.494;2023-01-15T00:08:01;3.03;;;2.40;;
57615;SDS011;43816;52.054;-9.494;2023-01-15T00:08:11;3.20;;;2.20;;
57615;SDS011;43816;52.054;-9.494;2023-01-15T00:08:21;3.37;;;2.13;;
57615;SDS011;43816;52.054;-9.494;2023-01-15T00:08:32;3.17;;;2.00;;
57615;SDS011;43816;52.054;-9.494;2023-01-15T00:08:42;2.90;;;2.00;;
57615;SDS011;43816;52.054;-9.494;2023-01-15T00:08:53;3.00;;;2.00;;
57615;SDS011;43816;52.054;-9.494;2023-01-15T00:09:05;3.42;;;2.08;;
57615;SDS011;43816;52.054;-9.494;2023-01-15T00:09:16;3.33;;;2.10;;
57615;SDS011;43816;52.054;-9.494;2023-01-15T00:09:26;2.47;;;2.00;;
57615;SDS011;43816;52.054;-9.494;2023-01-15T00:09:37;2.45;;;1.98;;
57615;SDS011;43816;52.054;-9.494;2023-01-15T00:09:48;2.93;;;2.10;;
57615;SDS011;43816;52.054;-9.494;2023-01-15T00:09:59;3.08;;;2.10;;
57615;SDS011;43816;52.054;-9.494;2023-01-15T00:10:09;2.97;;;2.07;;
57615;SDS011;43816;52.054;-9.494;2023-01-15T00:10:20;2.80;;;2.10;;
57615;SDS011;43816;52.054;-9.494;2023-01-15T00:10:30;3.50;;;2.10;;
57615;SDS011;43816;52.054;-9.494;2023-01-15T00:10:41;3.08;;;2.00;;
57615;SDS011;43816;52.054;-9.494;2023-01-15T00:10:51;2.90;;;2.00;;
57615;SDS011;43816;52.054;-9.494;2023-01-15T00:11:02;2.35;;;1.85;;
57615;SDS011;43816;52.054;-9.494;2023-01-15T00:11:13;3.03;;;1.90;;
57615;SDS011;43816;52.054;-9.494;2023-01-15T00:11:23;3.50;;;2.10;;
57615;SDS011;43816;52.054;-9.494;2023-01-15T00:11:34;3.03;;;2.10;;
57615;SDS011;43816;52.054;-9.494;2023-01-15T00:11:44;3.45;;;2.30;;
57615;SDS011;43816;52.054;-9.494;2023-01-15T00:11:54;4.00;;;2.17;;
57615;SDS011;43816;52.054;-9.494;2023-01-15T00:12:05;3.77;;;2.10;;
57615;SDS011;43816;52.054;-9.494;2023-01-15T00:12:15;3.03;;;1.97;;
57615;SDS011;43816;52.054;-9.494;2023-01-15T00:12:25;2.60;;;1.90;;
57615;SDS011;43816;52.054;-9.494;2023-01-15T00:12:35;2.47;;;1.80;;
57615;SDS011;43816;52.054;-9.494;2023-01-15T00:12:46;2.60;;;1.83;;
57615;SDS011;43816;52.054;-9.494;2023-01-15T00:12:56;2.58;;;1.90;;
57615;SDS011;43816;52.054;-9.494;2023-01-15T00:13:06;2.60;;;1.93;;
57615;SDS011;43816;52.054;-9.494;2023-01-15T00:13:17;2.55;;;1.95;;
57615;SDS011;43816;52.054;-9.494;2023-01-15T00:13:27;2.90;;;1.90;;
57615;SDS011;43816;52.054;-9.494;2023-01-15T00:13:37;2.83;;;1.90;;
57615;SDS011;43816;52.054;-9.494;2023-01-15T00:13:48;2.63;;;1.77;;
57615;SDS011;43816;52.054;-9.494;2023-01-15T00:13:59;2.13;;;1.70;;
57615;SDS011;43816;52.054;-9.494;2023-01-15T00:14:10;2.55;;;1.70;;
57615;SDS011;43816;52.054;-9.494;2023-01-15T00:14:20;3.23;;;2.00;;
57615;SDS011;43816;52.054;-9.494;2023-01-15T00:14:30;3.50;;;1.90;;
57615;SDS011;43816;52.054;-9.494;2023-01-15T00:14:41;3.10;;;1.92;;
57615;SDS011;43816;52.054;-9.494;2023-01-15T00:14:51;3.00;;;1.80;;
57615;SDS011;43816;52.054;-9.494;2023-01-15T00:15:01;2.97;;;1.90;;
57615;SDS011;43816;52.054;-9.494;2023-01-15T00:15:12;2.90;;;1.83;;
57615;SDS011;43816;52.054;-9.494;2023-01-15T00:15:22;2.45;;;1.80;;
57615;SDS011;43816;52.054;-9.494;2023-01-15T00:15:33;2.27;;;1.87;;
57615;SDS011;43816;52.054;-9.494;2023-01-15T00:15:43;2.70;;;2.10;;
57615;SDS011;43816;52.054;-9.494;2023-01-15T00:15:53;2.63;;;2.00;;
57615;SDS011;43816;52.054;-9.494;2023-01-15T00:16:15;2.88;;;1.80;;
57615;SDS011;43816;52.054;-9.494;2023-01-15T00:16:30;2.75;;;1.80;;
57615;SDS011;43816;52.054;-9.494;2023-01-15T00:16:40;2.50;;;1.77;;
57615;SDS011;43816;52.054;-9.494;2023-01-15T00:16:51;2.57;;;1.90;;
57615;SDS011;43816;52.054;-9.494;2023-01-15T00:17:02;2.72;;;1.92;;
57615;SDS011;43816;52.054;-9.494;2023-01-15T00:17:12;2.73;;;1.90;;
57615;SDS011;43816;52.054;-9.494;2023-01-15T00:17:23;2.53;;;1.70;;
57615;SDS011;43816;52.054;-9.494;2023-01-15T00:17:33;2.55;;;1.80;;
57615;SDS011;43816;52.054;-9.494;2023-01-15T00:17:43;2.60;;;1.77;;
57615;SDS011;43816;52.054;-9.494;2023-01-15T00:17:53;2.07;;;1.70;;
57615;SDS011;43816;52.054;-9.494;2023-01-15T00:18:04;2.92;;;1.77;;
57615;SDS011;43816;52.054;-9.494;2023-01-15T00:18:14;2.80;;;1.80;;
57615;SDS011;43816;52.054;-9.494;2023-01-15T00:18:24;3.80;;;1.80;;
57615;SDS011;43816;52.054;-9.494;2023-01-15T00:18:35;3.10;;;1.70;;
57615;SDS011;43816;52.054;-9.494;2023-01-15T00:18:49;3.22;;;1.73;;
57615;SDS011;43816;52.054;-9.494;2023-01-15T00:19:01;2.83;;;1.90;;
57615;SDS011;43816;52.054;-9.494;2023-01-15T00:19:11;2.63;;;1.87;;
57615;SDS011;43816;52.054;-9.494;2023-01-15T00:19:21;2.60;;;1.73;;
57615;SDS011;43816;52.054;-9.494;2023-01-15T00:19:32;2.55;;;1.77;;
57615;SDS011;43816;52.054;-9.494;2023-01-15T00:19:42;2.83;;;1.77;;
57615;SDS011;43816;52.054;-9.494;2023-01-15T00:19:52;2.93;;;1.77;;
57615;SDS011;43816;52.054;-9.494;2023-01-15T00:20:03;3.00;;;1.67;;
57615;SDS011;43816;52.054;-9.494;2023-01-15T00:20:13;2.80;;;1.80;;
57615;SDS011;43816;52.054;-9.494;2023-01-15T00:20:23;2.95;;;1.95;;
57615;SDS011;43816;52.054;-9.494;2023-01-15T00:20:34;3.07;;;1.90;;
57615;SDS011;43816;52.054;-9.494;2023-01-15T00:20:44;3.42;;;1.88;;
57615;SDS011;43816;52.054;-9.494;2023-01-15T00:20:58;3.30;;;1.70;;
57615;SDS011;43816;52.054;-9.494;2023-01-15T00:21:10;3.03;;;1.70;;
57615;SDS011;43816;52.054;-9.494;2023-01-15T00:21:22;2.28;;;1.77;;
57615;SDS011;43816;52.054;-9.494;2023-01-15T00:21:33;2.00;;;1.70;;
57615;SDS011;43816;52.054;-9.494;2023-01-15T00:21:43;2.85;;;1.90;;
57615;SDS011;43816;52.054;-9.494;2023-01-15T00:21:53;3.23;;;1.90;;
57615;SDS011;43816;52.054;-9.494;2023-01-15T00:22:04;3.10;;;1.90;;
57615;SDS011;43816;52.054;-9.494;2023-01-15T00:22:14;2.35;;;1.70;;
57615;SDS011;43816;52.054;-9.494;2023-01-15T00:22:24;2.00;;;1.67;;
57615;SDS011;43816;52.054;-9.494;2023-01-15T00:22:35;1.97;;;1.70;;
57615;SDS011;43816;52.054;-9.494;2023-01-15T00:22:45;1.93;;;1.80;;
57615;SDS011;43816;52.054;-9.494;2023-01-15T00:22:55;1.80;;;1.60;;
57615;SDS011;43816;52.054;-9.494;2023-01-15T00:23:06;1.93;;;1.53;;
57615;SDS011;43816;52.054;-9.494;2023-01-15T00:23:16;2.15;;;1.55;;
57615;SDS011;43816;52.054;-9.494;2023-01-15T00:23:26;2.37;;;1.77;;
57615;SDS011;43816;52.054;-9.494;2023-01-15T00:23:37;2.27;;;1.73;;
57615;SDS011;43816;52.054;-9.494;2023-01-15T00:23:47;1.93;;;1.63;;
57615;SDS011;43816;52.054;-9.494;2023-01-15T00:23:58;1.85;;;1.55;;
57615;SDS011;43816;52.054;-9.494;2023-01-15T00:24:08;1.87;;;1.63;;
57615;SDS011;43816;52.054;-9.494;2023-01-15T00:24:18;2.28;;;1.70;;
57615;SDS011;43816;52.054;-9.494;2023-01-15T00:24:29;2.47;;;1.77;;
57615;SDS011;43816;52.054;-9.494;2023-01-15T00:24:39;3.03;;;1.87;;
57615;SDS011;43816;52.054;-9.494;2023-01-15T00:24:49;3.30;;;2.00;;
57615;SDS011;43816;52.054;-9.494;2023-01-15T00:24:59;2.90;;;1.85;;
57615;SDS011;43816;52.054;-9.494;2023-01-15T00:25:10;2.60;;;1.73;;
57615;SDS011;43816;52.054;-9.494;2023-01-15T00:25:20;2.47;;;1.75;;
57615;SDS011;43816;52.054;-9.494;2023-01-15T00:25:31;2.97;;;1.80;;
57615;SDS011;43816;52.054;-9.494;2023-01-15T00:25:41;3.28;;;1.73;;
57615;SDS011;43816;52.054;-9.494;2023-01-15T00:25:54;3.03;;;1.70;;
57615;SDS011;43816;52.054;-9.494;2023-01-15T00:26:07;2.80;;;1.67;;
57615;SDS011;43816;52.054;-9.494;2023-01-15T00:26:22;3.47;;;1.70;;
57615;SDS011;43816;52.054;-9.494;2023-01-15T00:26:37;3.04;;;1.70;;
57615;SDS011;43816;52.054;-9.494;2023-01-15T00:26:47;2.20;;;1.67;;
57615;SDS011;43816;52.054;-9.494;2023-01-15T00:26:58;2.20;;;1.50;;
57615;SDS011;43816;52.054;-9.494;2023-01-15T00:27:09;2.35;;;1.60;;
57615;SDS011;43816;52.054;-9.494;2023-01-15T00:27:19;2.17;;;1.60;;
57615;SDS011;43816;52.054;-9.494;2023-01-15T00:27:30;2.05;;;1.50;;
57615;SDS011;43816;52.054;-9.494;2023-01-15T00:27:40;2.27;;;1.50;;
57615;SDS011;43816;52.054;-9.494;2023-01-15T00:27:50;2.37;;;1.60;;
57615;SDS011;43816;52.054;-9.494;2023-01-15T00:28:01;2.63;;;1.70;;
57615;SDS011;43816;52.054;-9.494;2023-01-15T00:28:11;2.43;;;1.67;;
57615;SDS011;43816;52.054;-9.494;2023-01-15T00:28:22;2.03;;;1.50;;
57615;SDS011;43816;52.054;-9.494;2023-01-15T00:28:33;2.40;;;1.60;;
57615;SDS011;43816;52.054;-9.494;2023-01-15T00:28:43;2.33;;;1.60;;
57615;SDS011;43816;52.054;-9.494;2023-01-15T00:28:53;2.40;;;1.63;;
57615;SDS011;43816;52.054;-9.494;2023-01-15T00:29:03;2.33;;;1.57;;
57615;SDS011;43816;52.054;-9.494;2023-01-15T00:29:14;2.60;;;1.60;;
57615;SDS011;43816;52.054;-9.494;2023-01-15T00:29:25;2.55;;;1.55;;
57615;SDS011;43816;52.054;-9.494;2023-01-15T00:29:36;1.98;;;1.40;;
57615;SDS011;43816;52.054;-9.494;2023-01-15T00:29:47;1.70;;;1.37;;
57615;SDS011;43816;52.054;-9.494;2023-01-15T00:29:57;1.77;;;1.33;;
57615;SDS011;43816;52.054;-9.494;2023-01-15T00:30:09;2.00;;;1.40;;
57615;SDS011;43816;52.054;-9.494;2023-01-15T00:30:21;2.75;;;1.67;;
57615;SDS011;43816;52.054;-9.494;2023-01-15T00:30:32;2.67;;;1.67;;
57615;SDS011;43816;52.054;-9.494;2023-01-15T00:30:42;2.63;;;1.70;;
57615;SDS011;43816;52.054;-9.494;2023-01-15T00:30:52;2.20;;;1.50;;
57615;SDS011;43816;52.054;-9.494;2023-01-15T00:31:02;2.17;;;1.50;;
57615;SDS011;43816;52.054;-9.494;2023-01-15T00:31:13;2.50;;;1.60;;
57615;SDS011;43816;52.054;-9.494;2023-01-15T00:31:23;3.03;;;1.73;;
57615;SDS011;43816;52.054;-9.494;2023-01-15T00:31:34;2.70;;;1.60;;
57615;SDS011;43816;52.054;-9.494;2023-01-15T00:31:52;2.60;;;1.50;;
57615;SDS011;43816;52.054;-9.494;2023-01-15T00:32:06;2.63;;;1.65;;
57615;SDS011;43816;52.054;-9.494;2023-01-15T00:32:17;3.35;;;1.73;;
57615;SDS011;43816;52.054;-9.494;2023-01-15T00:32:27;3.20;;;1.70;;
57615;SDS011;43816;52.054;-9.494;2023-01-15T00:32:38;2.28;;;1.60;;
57615;SDS011;43816;52.054;-9.494;2023-01-15T00:32:50;2.20;;;1.55;;
57615;SDS011;43816;52.054;-9.494;2023-01-15T00:33:00;2.20;;;1.50;;
57615;SDS011;43816;52.054;-9.494;2023-01-15T00:33:11;2.47;;;1.60;;
57615;SDS011;43816;52.054;-9.494;2023-01-15T00:33:21;2.53;;;1.70;;
57615;SDS011;43816;52.054;-9.494;2023-01-15T00:33:31;2.63;;;1.73;;
57615;SDS011;43816;52.054;-9.494;2023-01-15T00:33:41;2.40;;;1.73;;
57615;SDS011;43816;52.054;-9.494;2023-01-15T00:33:52;2.40;;;1.70;;
57615;SDS011;43816;52.054;-9.494;2023-01-15T00:34:02;2.10;;;1.50;;
57615;SDS011;43816;52.054;-9.494;2023-01-15T00:34:12;2.28;;;1.40;;
57615;SDS011;43816;52.054;-9.494;2023-01-15T00:34:23;2.20;;;1.40;;
57615;SDS011;43816;52.054;-9.494;2023-01-15T00:34:34;2.58;;;1.60;;
57615;SDS011;43816;52.054;-9.494;2023-01-15T00:34:45;2.80;;;1.63;;
57615;SDS011;43816;52.054;-9.494;2023-01-15T00:34:57;3.40;;;1.70;;
57615;SDS011;43816;52.054;-9.494;2023-01-15T00:35:12;2.83;;;1.58;;
57615;SDS011;43816;52.054;-9.494;2023-01-15T00:35:24;1.95;;;1.40;;
57615;SDS011;43816;52.054;-9.494;2023-01-15T00:35:34;1.98;;;1.48;;
57615;SDS011;43816;52.054;-9.494;2023-01-15T00:35:45;2.20;;;1.50;;
57615;SDS011;43816;52.054;-9.494;2023-01-15T00:35:55;2.25;;;1.50;;
57615;SDS011;43816;52.054;-9.494;2023-01-15T00:36:05;2.23;;;1.50;;
57615;SDS011;43816;52.054;-9.494;2023-01-15T00:36:16;2.10;;;1.50;;
57615;SDS011;43816;52.054;-9.494;2023-01-15T00:36:26;2.22;;;1.60;;
57615;SDS011;43816;52.054;-9.494;2023-01-15T00:36:36;2.37;;;1.60;;
57615;SDS011;43816;52.054;-9.494;2023-01-15T00:36:47;2.23;;;1.57;;
57615;SDS011;43816;52.054;-9.494;2023-01-15T00:36:57;2.42;;;1.65;;
57615;SDS011;43816;52.054;-9.494;2023-01-15T00:37:08;2.35;;;1.80;;
57615;SDS011;43816;52.054;-9.494;2023-01-15T00:37:18;2.70;;;1.90;;
57615;SDS011;43816;52.054;-9.494;2023-01-15T00:37:28;2.33;;;1.67;;
57615;SDS011;43816;52.054;-9.494;2023-01-15T00:37:39;2.47;;;1.60;;
57615;SDS011;43816;52.054;-9.494;2023-01-15T00:37:49;2.43;;;1.50;;
57615;SDS011;43816;52.054;-9.494;2023-01-15T00:38:00;2.20;;;1.48;;
57615;SDS011;43816;52.054;-9.494;2023-01-15T00:38:10;2.13;;;1.50;;
57615;SDS011;43816;52.054;-9.494;2023-01-15T00:38:21;1.92;;;1.40;;
57615;SDS011;43816;52.054;-9.494;2023-01-15T00:38:31;1.83;;;1.40;;
57615;SDS011;43816;52.054;-9.494;2023-01-15T00:38:41;1.50;;;1.30;;
57615;SDS011;43816;52.054;-9.494;2023-01-15T00:38:51;1.60;;;1.50;;
57615;SDS011;43816;52.054;-9.494;2023-01-15T00:39:04;1.60;;;1.50;;
57615;SDS011;43816;52.054;-9.494;2023-01-15T00:39:15;1.58;;;1.45;;
57615;SDS011;43816;52.054;-9.494;2023-01-15T00:39:25;1.67;;;1.30;;
57615;SDS011;43816;52.054;-9.494;2023-01-15T00:39:36;2.25;;;1.33;;
57615;SDS011;43816;52.054;-9.494;2023-01-15T00:39:46;2.50;;;1.40;;
57615;SDS011;43816;52.054;-9.494;2023-01-15T00:39:56;2.03;;;1.45;;
57615;SDS011;43816;52.054;-9.494;2023-01-15T00:40:07;2.17;;;1.50;;
57615;SDS011;43816;52.054;-9.494;2023-01-15T00:40:19;2.10;;;1.40;;
57615;SDS011;43816;52.054;-9.494;2023-01-15T00:40:29;1.96;;;1.30;;
57615;SDS011;43816;52.054;-9.494;2023-01-15T00:40:39;1.63;;;1.30;;
57615;SDS011;43816;52.054;-9.494;2023-01-15T00:40:50;2.00;;;1.57;;
57615;SDS011;43816;52.054;-9.494;2023-01-15T00:41:00;1.90;;;1.50;;
57615;SDS011;43816;52.054;-9.494;2023-01-15T00:41:10;1.80;;;1.40;;
57615;SDS011;43816;52.054;-9.494;2023-01-15T00:41:20;1.83;;;1.33;;
57615;SDS011;43816;52.054;-9.494;2023-01-15T00:41:31;1.70;;;1.40;;
57615;SDS011;43816;52.054;-9.494;2023-01-15T00:41:42;1.73;;;1.30;;
57615;SDS011;43816;52.054;-9.494;2023-01-15T00:41:52;2.20;;;1.35;;
57615;SDS011;43816;52.054;-9.494;2023-01-15T00:42:03;2.70;;;1.48;;
57615;SDS011;43816;52.054;-9.494;2023-01-15T00:42:14;2.58;;;1.60;;
57615;SDS011;43816;52.054;-9.494;2023-01-15T00:42:26;1.73;;;1.52;;
57615;SDS011;43816;52.054;-9.494;2023-01-15T00:42:36;1.55;;;1.40;;
57615;SDS011;43816;52.054;-9.494;2023-01-15T00:42:46;1.47;;;1.37;;
57615;SDS011;43816;52.054;-9.494;2023-01-15T00:42:57;1.80;;;1.40;;
57615;SDS011;43816;52.054;-9.494;2023-01-15T00:43:07;2.03;;;1.55;;
57615;SDS011;43816;52.054;-9.494;2023-01-15T00:43:17;2.17;;;1.57;;
57615;SDS011;43816;52.054;-9.494;2023-01-15T00:43:27;2.17;;;1.50;;
57615;SDS011;43816;52.054;-9.494;2023-01-15T00:43:38;2.03;;;1.58;;
57615;SDS011;43816;52.054;-9.494;2023-01-15T00:43:48;2.43;;;1.70;;
57615;SDS011;43816;52.054;-9.494;2023-01-15T00:43:58;2.23;;;1.70;;
57615;SDS011;43816;52.054;-9.494;2023-01-15T00:44:09;2.20;;;1.50;;
57615;SDS011;43816;52.054;-9.494;2023-01-15T00:44:19;2.13;;;1.37;;
57615;SDS011;43816;52.054;-9.494;2023-01-15T00:44:30;1.92;;;1.30;;
57615;SDS011;43816;52.054;-9.494;2023-01-15T00:44:40;1.77;;;1.30;;
57615;SDS011;43816;52.054;-9.494;2023-01-15T00:44:51;1.52;;;1.30;;
57615;SDS011;43816;52.054;-9.494;2023-01-15T00:45:01;2.03;;;1.30;;
57615;SDS011;43816;52.054;-9.494;2023-01-15T00:45:11;2.40;;;1.40;;
57615;SDS011;43816;52.054;-9.494;2023-01-15T00:45:22;2.73;;;1.53;;
57615;SDS011;43816;52.054;-9.494;2023-01-15T00:45:32;2.47;;;1.60;;
57615;SDS011;43816;52.054;-9.494;2023-01-15T00:45:43;2.03;;;1.50;;
57615;SDS011;43816;52.054;-9.494;2023-01-15T00:45:53;1.60;;;1.23;;
57615;SDS011;43816;52.054;-9.494;2023-01-15T00:46:03;1.48;;;1.30;;
57615;SDS011;43816;52.054;-9.494;2023-01-15T00:46:14;2.50;;;1.30;;
57615;SDS011;43816;52.054;-9.494;2023-01-15T00:46:24;2.78;;;1.40;;
57615;SDS011;43816;52.054;-9.494;2023-01-15T00:46:34;3.03;;;1.50;;
57615;SDS011;43816;52.054;-9.494;2023-01-15T00:46:45;1.97;;;1.43;;
57615;SDS011;43816;52.054;-9.494;2023-01-15T00:46:56;1.98;;;1.45;;
57615;SDS011;43816;52.054;-9.494;2023-01-15T00:47:06;2.08;;;1.40;;
57615;SDS011;43816;52.054;-9.494;2023-01-15T00:47:16;2.03;;;1.27;;
57615;SDS011;43816;52.054;-9.494;2023-01-15T00:47:26;1.77;;;1.30;;
57615;SDS011;43816;52.054;-9.494;2023-01-15T00:47:37;1.48;;;1.20;;
57615;SDS011;43816;52.054;-9.494;2023-01-15T00:47:49;1.67;;;1.30;;
57615;SDS011;43816;52.054;-9.494;2023-01-15T00:47:59;1.87;;;1.23;;
57615;SDS011;43816;52.054;-9.494;2023-01-15T00:48:10;2.13;;;1.25;;
57615;SDS011;43816;52.054;-9.494;2023-01-15T00:48:20;2.70;;;1.40;;
57615;SDS011;43816;52.054;-9.494;2023-01-15T00:48:30;2.67;;;1.50;;
57615;SDS011;43816;52.054;-9.494;2023-01-15T00:48:41;2.58;;;1.65;;
57615;SDS011;43816;52.054;-9.494;2023-01-15T00:48:51;2.00;;;1.50;;
57615;SDS011;43816;52.054;-9.494;2023-01-15T00:49:01;2.03;;;1.47;;
57615;SDS011;43816;52.054;-9.494;2023-01-15T00:49:12;1.92;;;1.35;;
57615;SDS011;43816;52.054;-9.494;2023-01-15T00:49:22;2.25;;;1.50;;
57615;SDS011;43816;52.054;-9.494;2023-01-15T00:49:33;2.13;;;1.40;;
57615;SDS011;43816;52.054;-9.494;2023-01-15T00:49:43;2.43;;;1.40;;
57615;SDS011;43816;52.054;-9.494;2023-01-15T00:49:54;2.17;;;1.40;;
57615;SDS011;43816;52.054;-9.494;2023-01-15T00:50:05;2.10;;;1.40;;
57615;SDS011;43816;52.054;-9.494;2023-01-15T00:50:17;1.77;;;1.40;;
57615;SDS011;43816;52.054;-9.494;2023-01-15T00:50:27;2.22;;;1.40;;
57615;SDS011;43816;52.054;-9.494;2023-01-15T00:50:39;2.23;;;1.50;;
57615;SDS011;43816;52.054;-9.494;2023-01-15T00:50:49;2.35;;;1.45;;
57615;SDS011;43816;52.054;-9.494;2023-01-15T00:51:00;2.00;;;1.40;;
57615;SDS011;43816;52.054;-9.494;2023-01-15T00:51:10;1.83;;;1.35;;
57615;SDS011;43816;52.054;-9.494;2023-01-15T00:51:21;1.70;;;1.20;;
57615;SDS011;43816;52.054;-9.494;2023-01-15T00:51:31;1.85;;;1.30;;
57615;SDS011;43816;52.054;-9.494;2023-01-15T00:51:41;1.90;;;1.37;;
57615;SDS011;43816;52.054;-9.494;2023-01-15T00:51:52;1.93;;;1.53;;
57615;SDS011;43816;52.054;-9.494;2023-01-15T00:52:02;1.75;;;1.40;;
57615;SDS011;43816;52.054;-9.494;2023-01-15T00:52:12;2.17;;;1.47;;
57615;SDS011;43816;52.054;-9.494;2023-01-15T00:52:23;2.30;;;1.50;;
57615;SDS011;43816;52.054;-9.494;2023-01-15T00:52:33;2.08;;;1.50;;
57615;SDS011;43816;52.054;-9.494;2023-01-15T00:52:43;1.63;;;1.40;;
57615;SDS011;43816;52.054;-9.494;2023-01-15T00:52:54;1.80;;;1.40;;
57615;SDS011;43816;52.054;-9.494;2023-01-15T00:53:04;1.93;;;1.40;;
57615;SDS011;43816;52.054;-9.494;2023-01-15T00:53:14;2.43;;;1.53;;
57615;SDS011;43816;52.054;-9.494;2023-01-15T00:53:24;2.03;;;1.43;;
57615;SDS011;43816;52.054;-9.494;2023-01-15T00:53:35;2.22;;;1.40;;
57615;SDS011;43816;52.054;-9.494;2023-01-15T00:53:45;2.03;;;1.40;;
57615;SDS011;43816;52.054;-9.494;2023-01-15T00:53:55;2.67;;;1.48;;
57615;SDS011;43816;52.054;-9.494;2023-01-15T00:54:06;2.30;;;1.40;;
57615;SDS011;43816;52.054;-9.494;2023-01-15T00:54:16;2.33;;;1.40;;
57615;SDS011;43816;52.054;-9.494;2023-01-15T00:54:27;2.05;;;1.35;;
57615;SDS011;43816;52.054;-9.494;2023-01-15T00:54:37;2.40;;;1.60;;
57615;SDS011;43816;52.054;-9.494;2023-01-15T00:54:47;2.72;;;1.60;;
57615;SDS011;43816;52.054;-9.494;2023-01-15T00:54:57;2.57;;;1.67;;
57615;SDS011;43816;52.054;-9.494;2023-01-15T00:55:08;2.30;;;1.60;;
57615;SDS011;43816;52.054;-9.494;2023-01-15T00:55:18;2.40;;;1.60;;
57615;SDS011;43816;52.054;-9.494;2023-01-15T00:55:29;3.27;;;1.63;;
57615;SDS011;43816;52.054;-9.494;2023-01-15T00:55:39;3.40;;;1.60;;
57615;SDS011;43816;52.054;-9.494;2023-01-15T00:55:49;3.70;;;1.70;;
57615;SDS011;43816;52.054;-9.494;2023-01-15T00:55:59;2.90;;;1.50;;
57615;SDS011;43816;52.054;-9.494;2023-01-15T00:56:10;3.13;;;1.60;;
57615;SDS011;43816;52.054;-9.494;2023-01-15T00:56:20;2.70;;;1.52;;
57615;SDS011;43816;52.054;-9.494;2023-01-15T00:56:30;2.53;;;1.50;;
57615;SDS011;43816;52.054;-9.494;2023-01-15T00:56:41;2.53;;;1.52;;
57615;SDS011;43816;52.054;-9.494;2023-01-15T00:56:51;2.93;;;1.67;;
57615;SDS011;43816;52.054;-9.494;2023-01-15T00:57:02;3.00;;;1.67;;
57615;SDS011;43816;52.054;-9.494;2023-01-15T00:57:12;2.70;;;1.63;;
57615;SDS011;43816;52.054;-9.494;2023-01-15T00:57:22;2.73;;;1.50;;
57615;SDS011;43816;52.054;-9.494;2023-01-15T00:57:33;3.20;;;1.50;;
57615;SDS011;43816;52.054;-9.494;2023-01-15T00:57:44;3.13;;;1.50;;
57615;SDS011;43816;52.054;-9.494;2023-01-15T00:57:54;2.67;;;1.40;;
57615;SDS011;43816;52.054;-9.494;2023-01-15T00:58:04;2.13;;;1.37;;
57615;SDS011;43816;52.054;-9.494;2023-01-15T00:58:14;1.80;;;1.30;;
57615;SDS011;43816;52.054;-9.494;2023-01-15T00:58:25;1.58;;;1.30;;
57615;SDS011;43816;52.054;-9.494;2023-01-15T00:58:35;1.80;;;1.43;;
57615;SDS011;43816;52.054;-9.494;2023-01-15T00:58:45;1.60;;;1.30;;
57615;SDS011;43816;52.054;-9.494;2023-01-15T00:58:56;1.67;;;1.30;;
57615;SDS011;43816;52.054;-9.494;2023-01-15T00:59:06;2.00;;;1.40;;
57615;SDS011;43816;52.054;-9.494;2023-01-15T00:59:16;2.85;;;1.60;;
57615;SDS011;43816;52.054;-9.494;2023-01-15T00:59:27;2.90;;;1.70;;
57615;SDS011;43816;52.054;-9.494;2023-01-15T00:59:37;2.67;;;1.63;;
57615;SDS011;43816;52.054;-9.494;2023-01-15T00:59:47;2.28;;;1.55;;
57615;SDS011;43816;52.054;-9.494;2023-01-15T00:59:58;2.70;;;1.50;;
57615;SDS011;43816;52.054;-9.494;2023-01-15T01:00:08;2.37;;;1.50;;
57615;SDS011;43816;52.054;-9.494;2023-01-15T01:00:19;2.15;;;1.50;;
57615;SDS011;43816;52.054;-9.494;2023-01-15T01:00:29;2.22;;;1.40;;
57615;SDS011;43816;52.054;-9.494;2023-01-15T01:00:40;2.87;;;1.40;;
57615;SDS011;43816;52.054;-9.494;2023-01-15T01:00:53;2.77;;;1.27;;
57615;SDS011;43816;52.054;-9.494;2023-01-15T01:01:04;2.38;;;1.40;;
57615;SDS011;43816;52.054;-9.494;2023-01-15T01:01:14;2.10;;;1.43;;
57615;SDS011;43816;52.054;-9.494;2023-01-15T01:01:25;1.75;;;1.33;;
57615;SDS011;43816;52.054;-9.494;2023-01-15T01:01:35;1.90;;;1.40;;
57615;SDS011;43816;52.054;-9.494;2023-01-15T01:01:46;2.10;;;1.40;;
57615;SDS011;43816;52.054;-9.494;2023-01-15T01:01:57;2.57;;;1.57;;
57615;SDS011;43816;52.054;-9.494;2023-01-15T01:02:07;2.22;;;1.42;;
57615;SDS011;43816;52.054;-9.494;2023-01-15T01:02:17;2.67;;;1.50;;
57615;SDS011;43816;52.054;-9.494;2023-01-15T01:02:28;2.70;;;1.52;;
57615;SDS011;43816;52.054;-9.494;2023-01-15T01:02:38;3.07;;;1.63;;
57615;SDS011;43816;52.054;-9.494;2023-01-15T01:02:48;2.73;;;1.60;;
57615;SDS011;43816;52.054;-9.494;2023-01-15T01:02:59;2.83;;;1.67;;
57615;SDS011;43816;52.054;-9.494;2023-01-15T01:03:09;3.07;;;1.70;;
57615;SDS011;43816;52.054;-9.494;2023-01-15T01:03:19;3.67;;;1.80;;
57615;SDS011;43816;52.054;-9.494;2023-01-15T01:03:30;3.08;;;1.63;;
57615;SDS011;43816;52.054;-9.494;2023-01-15T01:03:41;2.60;;;1.55;;